sensor_id;sensor_type;location;lat;lon;timestamp;pressure;altitude;pressure_sealevel;temperature
9985;BMP180;16737;50.932;6.780;2023-04-15T00:02:15;99381.00;;;12.50
9985;BMP180;16737;50.932;6.780;2023-04-15T00:04:43;99387.00;;;12.50
9985;BMP180;16737;50.932;6.780;2023-04-15T00:07:10;99392.00;;;12.40
9985;BMP180;16737;50.932;6.780;2023-04-15T00:09:37;99391.00;;;12.40
9985;BMP180;16737;50.932;6.780;2023-04-15T00:12:04;99386.00;;;12.40
9985;BMP180;16737;50.932;6.780;2023-04-15T00:14:33;99386.00;;;12.40
9985;BMP180;16737;50.932;6.780;2023-04-15T00:17:03;99375.00;;;12.30
9985;BMP180;16737;50.932;6.780;2023-04-15T00:19:30;99365.00;;;12.30
9985;BMP180;16737;50.932;6.780;2023-04-15T00:21:58;99375.00;;;12.30
9985;BMP180;16737;50.932;6.780;2023-04-15T00:24:25;99377.00;;;12.30
9985;BMP180;16737;50.932;6.780;2023-04-15T00:26:52;99376.00;;;12.20
9985;BMP180;16737;50.932;6.780;2023-04-15T00:29:19;99376.00;;;12.20
9985;BMP180;16737;50.932;6.780;2023-04-15T00:31:46;99376.00;;;12.20
9985;BMP180;16737;50.932;6.780;2023-04-15T00:34:14;99380.00;;;12.20
9985;BMP180;16737;50.932;6.780;2023-04-15T00:36:41;99378.00;;;12.20
9985;BMP180;16737;50.932;6.780;2023-04-15T00:39:08;99378.00;;;12.10
9985;BMP180;16737;50.932;6.780;2023-04-15T00:41:35;99374.00;;;12.10
9985;BMP180;16737;50.932;6.780;2023-04-15T00:44:05;99388.00;;;12.10
9985;BMP180;16737;50.932;6.780;2023-04-15T00:46:34;99383.00;;;12.10
9985;BMP180;16737;50.932;6.780;2023-04-15T00:49:04;99376.00;;;12.00
9985;BMP180;16737;50.932;6.780;2023-04-15T00:51:33;99367.00;;;12.00
9985;BMP180;16737;50.932;6.780;2023-04-15T00:54:02;99375.00;;;12.00
9985;BMP180;16737;50.932;6.780;2023-04-15T00:56:30;99375.00;;;11.90
9985;BMP180;16737;50.932;6.780;2023-04-15T00:58:58;99382.00;;;11.90
9985;BMP180;16737;50.932;6.780;2023-04-15T01:01:25;99386.00;;;11.80
9985;BMP180;16737;50.932;6.780;2023-04-15T01:03:55;99380.00;;;11.80
9985;BMP180;16737;50.932;6.780;2023-04-15T01:06:23;99384.00;;;11.70
9985;BMP180;16737;50.932;6.780;2023-04-15T01:08:53;99373.00;;;11.70
9985;BMP180;16737;50.932;6.780;2023-04-15T01:11:20;99378.00;;;11.60
9985;BMP180;16737;50.932;6.780;2023-04-15T01:13:50;99373.00;;;11.50
9985;BMP180;16737;50.932;6.780;2023-04-15T01:16:18;99377.00;;;11.50
9985;BMP180;16737;50.932;6.780;2023-04-15T01:18:45;99366.00;;;11.40
9985;BMP180;16737;50.932;6.780;2023-04-15T01:21:12;99358.00;;;11.40
9985;BMP180;16737;50.932;6.780;2023-04-15T01:23:39;99362.00;;;11.40
9985;BMP180;16737;50.932;6.780;2023-04-15T01:26:08;99365.00;;;11.40
9985;BMP180;16737;50.932;6.780;2023-04-15T01:28:36;99366.00;;;11.40
9985;BMP180;16737;50.932;6.780;2023-04-15T01:31:08;99364.00;;;11.40
9985;BMP180;16737;50.932;6.780;2023-04-15T01:33:36;99361.00;;;11.40
9985;BMP180;16737;50.932;6.780;2023-04-15T01:36:05;99367.00;;;11.40
9985;BMP180;16737;50.932;6.780;2023-04-15T01:38:33;99357.00;;;11.40
9985;BMP180;16737;50.932;6.780;2023-04-15T01:41:01;99367.00;;;11.30
9985;BMP180;16737;50.932;6.780;2023-04-15T01:43:30;99346.00;;;11.30
9985;BMP180;16737;50.932;6.780;2023-04-15T01:45:57;99354.00;;;11.30
9985;BMP180;16737;50.932;6.780;2023-04-15T01:48:24;99361.00;;;11.20
9985;BMP180;16737;50.932;6.780;2023-04-15T01:50:53;99360.00;;;11.20
9985;BMP180;16737;50.932;6.780;2023-04-15T01:53:22;99360.00;;;11.20
9985;BMP180;16737;50.932;6.780;2023-04-15T01:55:49;99353.00;;;11.10
9985;BMP180;16737;50.932;6.780;2023-04-15T01:58:16;99356.00;;;11.10
9985;BMP180;16737;50.932;6.780;2023-04-15T02:00:45;99356.00;;;11.10
9985;BMP180;16737;50.932;6.780;2023-04-15T02:03:12;99356.00;;;11.10
9985;BMP180;16737;50.932;6.780;2023-04-15T02:05:39;99354.00;;;11.00
9985;BMP180;16737;50.932;6.780;2023-04-15T02:08:06;99349.00;;;11.00
9985;BMP180;16737;50.932;6.780;2023-04-15T02:10:33;99352.00;;;11.00
9985;BMP180;16737;50.932;6.780;2023-04-15T02:13:00;99361.00;;;11.00
9985;BMP180;16737;50.932;6.780;2023-04-15T02:15:27;99356.00;;;11.00
9985;BMP180;16737;50.932;6.780;2023-04-15T02:17:55;99341.00;;;11.00
9985;BMP180;16737;50.932;6.780;2023-04-15T02:20:23;99369.00;;;11.00
9985;BMP180;16737;50.932;6.780;2023-04-15T02:22:50;99352.00;;;11.00
9985;BMP180;16737;50.932;6.780;2023-04-15T02:25:18;99361.00;;;11.00
9985;BMP180;16737;50.932;6.780;2023-04-15T02:27:45;99357.00;;;11.00
9985;BMP180;16737;50.932;6.780;2023-04-15T02:30:12;99370.00;;;11.00
9985;BMP180;16737;50.932;6.780;2023-04-15T02:32:40;99354.00;;;11.00
9985;BMP180;16737;50.932;6.780;2023-04-15T02:35:10;99363.00;;;10.90
9985;BMP180;16737;50.932;6.780;2023-04-15T02:37:38;99375.00;;;10.90
9985;BMP180;16737;50.932;6.780;2023-04-15T02:40:09;99376.00;;;10.90
9985;BMP180;16737;50.932;6.780;2023-04-15T02:42:37;99371.00;;;10.90
9985;BMP180;16737;50.932;6.780;2023-04-15T02:45:06;99373.00;;;10.90
9985;BMP180;16737;50.932;6.780;2023-04-15T02:47:33;99380.00;;;10.90
9985;BMP180;16737;50.932;6.780;2023-04-15T02:50:01;99378.00;;;10.80
9985;BMP180;16737;50.932;6.780;2023-04-15T02:52:30;99375.00;;;10.80
9985;BMP180;16737;50.932;6.780;2023-04-15T02:54:57;99374.00;;;10.80
9985;BMP180;16737;50.932;6.780;2023-04-15T02:57:25;99378.00;;;10.80
9985;BMP180;16737;50.932;6.780;2023-04-15T02:59:54;99382.00;;;10.80
9985;BMP180;16737;50.932;6.780;2023-04-15T03:02:21;99387.00;;;10.80
9985;BMP180;16737;50.932;6.780;2023-04-15T03:04:48;99374.00;;;10.80
9985;BMP180;16737;50.932;6.780;2023-04-15T03:07:16;99375.00;;;10.80
9985;BMP180;16737;50.932;6.780;2023-04-15T03:09:45;99372.00;;;10.80
9985;BMP180;16737;50.932;6.780;2023-04-15T03:12:12;99390.00;;;10.80
9985;BMP180;16737;50.932;6.780;2023-04-15T03:14:39;99384.00;;;10.80
9985;BMP180;16737;50.932;6.780;2023-04-15T03:17:06;99389.00;;;10.70
9985;BMP180;16737;50.932;6.780;2023-04-15T03:19:33;99387.00;;;10.80
9985;BMP180;16737;50.932;6.780;2023-04-15T03:22:00;99375.00;;;10.70
9985;BMP180;16737;50.932;6.780;2023-04-15T03:24:27;99365.00;;;10.50
9985;BMP180;16737;50.932;6.780;2023-04-15T03:26:56;99378.00;;;10.70
9985;BMP180;16737;50.932;6.780;2023-04-15T03:29:23;99388.00;;;10.70
9985;BMP180;16737;50.932;6.780;2023-04-15T03:31:51;99389.00;;;10.70
9985;BMP180;16737;50.932;6.780;2023-04-15T03:34:18;99393.00;;;10.70
9985;BMP180;16737;50.932;6.780;2023-04-15T03:36:45;99379.00;;;10.70
9985;BMP180;16737;50.932;6.780;2023-04-15T03:39:12;99385.00;;;10.60
9985;BMP180;16737;50.932;6.780;2023-04-15T03:41:39;99392.00;;;10.60
9985;BMP180;16737;50.932;6.780;2023-04-15T03:44:07;99388.00;;;10.50
9985;BMP180;16737;50.932;6.780;2023-04-15T03:46:35;99360.00;;;10.50
9985;BMP180;16737;50.932;6.780;2023-04-15T03:49:01;99396.00;;;10.50
9985;BMP180;16737;50.932;6.780;2023-04-15T03:51:28;99395.00;;;10.50
9985;BMP180;16737;50.932;6.780;2023-04-15T03:53:55;99403.00;;;10.40
9985;BMP180;16737;50.932;6.780;2023-04-15T03:56:23;99407.00;;;10.40
9985;BMP180;16737;50.932;6.780;2023-04-15T03:58:50;99409.00;;;10.20
9985;BMP180;16737;50.932;6.780;2023-04-15T04:01:18;99408.00;;;10.40
9985;BMP180;16737;50.932;6.780;2023-04-15T04:03:45;99416.00;;;10.40
9985;BMP180;16737;50.932;6.780;2023-04-15T04:06:13;99413.00;;;10.30
9985;BMP180;16737;50.932;6.780;2023-04-15T04:08:41;99404.00;;;10.30
9985;BMP180;16737;50.932;6.780;2023-04-15T04:11:08;99418.00;;;10.30
9985;BMP180;16737;50.932;6.780;2023-04-15T04:13:35;99418.00;;;10.20
9985;BMP180;16737;50.932;6.780;2023-04-15T04:16:02;99430.00;;;10.10
9985;BMP180;16737;50.932;6.780;2023-04-15T04:18:31;99424.00;;;10.10
9985;BMP180;16737;50.932;6.780;2023-04-15T04:20:58;99422.00;;;10.10
9985;BMP180;16737;50.932;6.780;2023-04-15T04:23:26;99416.00;;;10.00
9985;BMP180;16737;50.932;6.780;2023-04-15T04:25:53;99423.00;;;10.00
9985;BMP180;16737;50.932;6.780;2023-04-15T04:28:20;99411.00;;;10.00
9985;BMP180;16737;50.932;6.780;2023-04-15T04:30:46;99411.00;;;9.90
9985;BMP180;16737;50.932;6.780;2023-04-15T04:33:13;99417.00;;;9.90
9985;BMP180;16737;50.932;6.780;2023-04-15T04:35:42;99422.00;;;9.90
9985;BMP180;16737;50.932;6.780;2023-04-15T04:38:09;99420.00;;;9.80
9985;BMP180;16737;50.932;6.780;2023-04-15T04:40:36;99422.00;;;9.80
9985;BMP180;16737;50.932;6.780;2023-04-15T04:43:03;99422.00;;;9.80
9985;BMP180;16737;50.932;6.780;2023-04-15T04:45:30;99430.00;;;9.80
9985;BMP180;16737;50.932;6.780;2023-04-15T04:47:56;99428.00;;;9.70
9985;BMP180;16737;50.932;6.780;2023-04-15T04:50:23;99434.00;;;9.80
9985;BMP180;16737;50.932;6.780;2023-04-15T04:52:52;99438.00;;;9.70
9985;BMP180;16737;50.932;6.780;2023-04-15T04:55:19;99441.00;;;9.50
9985;BMP180;16737;50.932;6.780;2023-04-15T04:57:46;99445.00;;;9.70
9985;BMP180;16737;50.932;6.780;2023-04-15T05:00:13;99426.00;;;9.70
9985;BMP180;16737;50.932;6.780;2023-04-15T05:02:40;99452.00;;;9.70
9985;BMP180;16737;50.932;6.780;2023-04-15T05:05:09;99445.00;;;9.70
9985;BMP180;16737;50.932;6.780;2023-04-15T05:07:36;99441.00;;;9.70
9985;BMP180;16737;50.932;6.780;2023-04-15T05:10:07;99459.00;;;9.70
9985;BMP180;16737;50.932;6.780;2023-04-15T05:12:35;99447.00;;;9.70
9985;BMP180;16737;50.932;6.780;2023-04-15T05:15:04;99455.00;;;9.70
9985;BMP180;16737;50.932;6.780;2023-04-15T05:17:31;99468.00;;;9.70
9985;BMP180;16737;50.932;6.780;2023-04-15T05:20:00;99465.00;;;9.70
9985;BMP180;16737;50.932;6.780;2023-04-15T05:22:27;99473.00;;;9.70
9985;BMP180;16737;50.932;6.780;2023-04-15T05:24:53;99475.00;;;9.70
9985;BMP180;16737;50.932;6.780;2023-04-15T05:27:22;99477.00;;;9.70
9985;BMP180;16737;50.932;6.780;2023-04-15T05:29:49;99468.00;;;9.70
9985;BMP180;16737;50.932;6.780;2023-04-15T05:32:16;99480.00;;;9.70
9985;BMP180;16737;50.932;6.780;2023-04-15T05:34:43;99476.00;;;9.70
9985;BMP180;16737;50.932;6.780;2023-04-15T05:37:10;99475.00;;;9.80
9985;BMP180;16737;50.932;6.780;2023-04-15T05:39:37;99481.00;;;9.80
9985;BMP180;16737;50.932;6.780;2023-04-15T05:42:04;99494.00;;;9.80
9985;BMP180;16737;50.932;6.780;2023-04-15T05:44:32;99484.00;;;9.80
9985;BMP180;16737;50.932;6.780;2023-04-15T05:47:00;99457.00;;;9.70
9985;BMP180;16737;50.932;6.780;2023-04-15T05:49:28;99431.00;;;9.90
9985;BMP180;16737;50.932;6.780;2023-04-15T05:51:55;99488.00;;;10.00
9985;BMP180;16737;50.932;6.780;2023-04-15T05:54:22;99498.00;;;9.90
9985;BMP180;16737;50.932;6.780;2023-04-15T05:56:49;99505.00;;;10.00
9985;BMP180;16737;50.932;6.780;2023-04-15T05:59:16;99509.00;;;10.10
9985;BMP180;16737;50.932;6.780;2023-04-15T06:01:44;99515.00;;;10.10
9985;BMP180;16737;50.932;6.780;2023-04-15T06:04:11;99518.00;;;10.20
9985;BMP180;16737;50.932;6.780;2023-04-15T06:06:38;99522.00;;;10.30
9985;BMP180;16737;50.932;6.780;2023-04-15T06:09:05;99532.00;;;10.40
9985;BMP180;16737;50.932;6.780;2023-04-15T06:11:32;99523.00;;;10.50
9985;BMP180;16737;50.932;6.780;2023-04-15T06:13:59;99533.00;;;10.60
9985;BMP180;16737;50.932;6.780;2023-04-15T06:16:26;99541.00;;;10.60
9985;BMP180;16737;50.932;6.780;2023-04-15T06:18:54;99536.00;;;10.70
9985;BMP180;16737;50.932;6.780;2023-04-15T06:21:21;99533.00;;;10.80
9985;BMP180;16737;50.932;6.780;2023-04-15T06:23:48;99525.00;;;10.80
9985;BMP180;16737;50.932;6.780;2023-04-15T06:26:15;99533.00;;;10.90
9985;BMP180;16737;50.932;6.780;2023-04-15T06:28:41;99532.00;;;11.00
9985;BMP180;16737;50.932;6.780;2023-04-15T06:31:08;99543.00;;;11.10
9985;BMP180;16737;50.932;6.780;2023-04-15T06:33:35;99528.00;;;11.10
9985;BMP180;16737;50.932;6.780;2023-04-15T06:36:04;99554.00;;;11.00
9985;BMP180;16737;50.932;6.780;2023-04-15T06:38:31;99534.00;;;11.30
9985;BMP180;16737;50.932;6.780;2023-04-15T06:40:58;99552.00;;;11.40
9985;BMP180;16737;50.932;6.780;2023-04-15T06:43:26;99556.00;;;11.50
9985;BMP180;16737;50.932;6.780;2023-04-15T06:45:53;99552.00;;;11.60
9985;BMP180;16737;50.932;6.780;2023-04-15T06:48:20;99563.00;;;11.60
9985;BMP180;16737;50.932;6.780;2023-04-15T06:50:47;99562.00;;;11.70
9985;BMP180;16737;50.932;6.780;2023-04-15T06:53:16;99570.00;;;11.80
9985;BMP180;16737;50.932;6.780;2023-04-15T06:55:43;99576.00;;;11.90
9985;BMP180;16737;50.932;6.780;2023-04-15T06:58:10;99573.00;;;12.00
9985;BMP180;16737;50.932;6.780;2023-04-15T07:00:37;99581.00;;;12.10
9985;BMP180;16737;50.932;6.780;2023-04-15T07:03:05;99591.00;;;12.20
9985;BMP180;16737;50.932;6.780;2023-04-15T07:05:34;99578.00;;;12.30
9985;BMP180;16737;50.932;6.780;2023-04-15T07:08:01;99598.00;;;12.40
9985;BMP180;16737;50.932;6.780;2023-04-15T07:10:30;99601.00;;;12.50
9985;BMP180;16737;50.932;6.780;2023-04-15T07:12:57;99597.00;;;12.60
9985;BMP180;16737;50.932;6.780;2023-04-15T07:15:24;99604.00;;;12.70
9985;BMP180;16737;50.932;6.780;2023-04-15T07:17:51;99556.00;;;12.80
9985;BMP180;16737;50.932;6.780;2023-04-15T07:20:18;99616.00;;;12.90
9985;BMP180;16737;50.932;6.780;2023-04-15T07:22:45;99619.00;;;13.00
9985;BMP180;16737;50.932;6.780;2023-04-15T07:25:12;99626.00;;;13.10
9985;BMP180;16737;50.932;6.780;2023-04-15T07:27:40;99618.00;;;13.20
9985;BMP180;16737;50.932;6.780;2023-04-15T07:30:08;99623.00;;;13.30
9985;BMP180;16737;50.932;6.780;2023-04-15T07:32:35;99627.00;;;13.40
9985;BMP180;16737;50.932;6.780;2023-04-15T07:35:03;99635.00;;;13.40
9985;BMP180;16737;50.932;6.780;2023-04-15T07:37:30;99638.00;;;13.50
9985;BMP180;16737;50.932;6.780;2023-04-15T07:39:57;99642.00;;;13.60
9985;BMP180;16737;50.932;6.780;2023-04-15T07:42:24;99646.00;;;13.70
9985;BMP180;16737;50.932;6.780;2023-04-15T07:44:52;99652.00;;;13.80
9985;BMP180;16737;50.932;6.780;2023-04-15T07:47:19;99662.00;;;13.80
9985;BMP180;16737;50.932;6.780;2023-04-15T07:49:46;99658.00;;;13.90
9985;BMP180;16737;50.932;6.780;2023-04-15T07:52:14;99667.00;;;14.00
9985;BMP180;16737;50.932;6.780;2023-04-15T07:54:41;99653.00;;;14.10
9985;BMP180;16737;50.932;6.780;2023-04-15T07:57:08;99664.00;;;14.20
9985;BMP180;16737;50.932;6.780;2023-04-15T07:59:34;99661.00;;;14.30
9985;BMP180;16737;50.932;6.780;2023-04-15T08:02:03;99663.00;;;14.40
9985;BMP180;16737;50.932;6.780;2023-04-15T08:04:30;99675.00;;;14.50
9985;BMP180;16737;50.932;6.780;2023-04-15T08:06:58;99677.00;;;14.60
9985;BMP180;16737;50.932;6.780;2023-04-15T08:09:25;99689.00;;;14.70
9985;BMP180;16737;50.932;6.780;2023-04-15T08:11:52;99673.00;;;14.80
9985;BMP180;16737;50.932;6.780;2023-04-15T08:14:19;99637.00;;;14.90
9985;BMP180;16737;50.932;6.780;2023-04-15T08:16:46;99692.00;;;15.00
9985;BMP180;16737;50.932;6.780;2023-04-15T08:19:15;99703.00;;;15.00
9985;BMP180;16737;50.932;6.780;2023-04-15T08:21:42;99700.00;;;15.10
9985;BMP180;16737;50.932;6.780;2023-04-15T08:24:09;99690.00;;;15.20
9985;BMP180;16737;50.932;6.780;2023-04-15T08:26:36;99694.00;;;15.30
9985;BMP180;16737;50.932;6.780;2023-04-15T08:29:03;99694.00;;;15.40
9985;BMP180;16737;50.932;6.780;2023-04-15T08:31:30;99696.00;;;15.50
9985;BMP180;16737;50.932;6.780;2023-04-15T08:33:57;99701.00;;;15.60
9985;BMP180;16737;50.932;6.780;2023-04-15T08:36:25;99708.00;;;15.60
9985;BMP180;16737;50.932;6.780;2023-04-15T08:38:53;99709.00;;;15.70
9985;BMP180;16737;50.932;6.780;2023-04-15T08:41:22;99698.00;;;15.80
9985;BMP180;16737;50.932;6.780;2023-04-15T08:43:53;99714.00;;;15.80
9985;BMP180;16737;50.932;6.780;2023-04-15T08:46:22;99715.00;;;15.90
9985;BMP180;16737;50.932;6.780;2023-04-15T08:48:49;99718.00;;;15.90
9985;BMP180;16737;50.932;6.780;2023-04-15T08:51:17;99719.00;;;15.90
9985;BMP180;16737;50.932;6.780;2023-04-15T08:53:46;99724.00;;;15.90
9985;BMP180;16737;50.932;6.780;2023-04-15T08:56:15;99706.00;;;16.00
9985;BMP180;16737;50.932;6.780;2023-04-15T08:58:43;99729.00;;;16.00
9985;BMP180;16737;50.932;6.780;2023-04-15T09:01:12;99732.00;;;16.10
9985;BMP180;16737;50.932;6.780;2023-04-15T09:03:39;99733.00;;;16.20
9985;BMP180;16737;50.932;6.780;2023-04-15T09:06:07;99731.00;;;16.20
9985;BMP180;16737;50.932;6.780;2023-04-15T09:08:34;99731.00;;;16.20
9985;BMP180;16737;50.932;6.780;2023-04-15T09:11:03;99733.00;;;16.30
9985;BMP180;16737;50.932;6.780;2023-04-15T09:13:30;99748.00;;;16.30
9985;BMP180;16737;50.932;6.780;2023-04-15T09:15:57;99754.00;;;16.40
9985;BMP180;16737;50.932;6.780;2023-04-15T09:18:28;99739.00;;;16.40
9985;BMP180;16737;50.932;6.780;2023-04-15T09:21:04;99755.00;;;16.40
9985;BMP180;16737;50.932;6.780;2023-04-15T09:23:31;99754.00;;;16.50
9985;BMP180;16737;50.932;6.780;2023-04-15T09:25:58;99764.00;;;16.50
9985;BMP180;16737;50.932;6.780;2023-04-15T09:28:28;99770.00;;;16.50
9985;BMP180;16737;50.932;6.780;2023-04-15T09:30:56;99770.00;;;16.60
9985;BMP180;16737;50.932;6.780;2023-04-15T09:33:24;99777.00;;;16.60
9985;BMP180;16737;50.932;6.780;2023-04-15T09:36:01;99770.00;;;16.60
9985;BMP180;16737;50.932;6.780;2023-04-15T09:38:29;99777.00;;;16.70
9985;BMP180;16737;50.932;6.780;2023-04-15T09:40:58;99787.00;;;16.80
9985;BMP180;16737;50.932;6.780;2023-04-15T09:43:39;99778.00;;;16.80
9985;BMP180;16737;50.932;6.780;2023-04-15T09:46:06;99790.00;;;16.90
9985;BMP180;16737;50.932;6.780;2023-04-15T09:48:35;99797.00;;;16.90
9985;BMP180;16737;50.932;6.780;2023-04-15T09:51:02;99804.00;;;16.90
9985;BMP180;16737;50.932;6.780;2023-04-15T09:53:34;99803.00;;;16.90
9985;BMP180;16737;50.932;6.780;2023-04-15T09:56:02;99801.00;;;16.90
9985;BMP180;16737;50.932;6.780;2023-04-15T09:58:33;99800.00;;;16.90
9985;BMP180;16737;50.932;6.780;2023-04-15T10:01:04;99809.00;;;16.90
9985;BMP180;16737;50.932;6.780;2023-04-15T10:03:34;99797.00;;;17.00
9985;BMP180;16737;50.932;6.780;2023-04-15T10:06:01;99807.00;;;17.00
9985;BMP180;16737;50.932;6.780;2023-04-15T10:08:32;99818.00;;;17.10
9985;BMP180;16737;50.932;6.780;2023-04-15T10:11:00;99809.00;;;17.10
9985;BMP180;16737;50.932;6.780;2023-04-15T10:13:30;99801.00;;;17.20
9985;BMP180;16737;50.932;6.780;2023-04-15T10:16:09;99817.00;;;17.10
9985;BMP180;16737;50.932;6.780;2023-04-15T10:18:42;99820.00;;;17.30
9985;BMP180;16737;50.932;6.780;2023-04-15T10:21:10;99821.00;;;17.40
9985;BMP180;16737;50.932;6.780;2023-04-15T10:23:38;99826.00;;;17.50
9985;BMP180;16737;50.932;6.780;2023-04-15T10:26:07;99830.00;;;17.60
9985;BMP180;16737;50.932;6.780;2023-04-15T10:28:37;99811.00;;;17.60
9985;BMP180;16737;50.932;6.780;2023-04-15T10:31:06;99835.00;;;17.70
9985;BMP180;16737;50.932;6.780;2023-04-15T10:33:34;99831.00;;;17.80
9985;BMP180;16737;50.932;6.780;2023-04-15T10:36:04;99806.00;;;17.80
9985;BMP180;16737;50.932;6.780;2023-04-15T10:38:38;99824.00;;;17.90
9985;BMP180;16737;50.932;6.780;2023-04-15T10:41:18;99826.00;;;17.90
9985;BMP180;16737;50.932;6.780;2023-04-15T10:43:48;99834.00;;;17.90
9985;BMP180;16737;50.932;6.780;2023-04-15T10:46:22;99835.00;;;17.90
9985;BMP180;16737;50.932;6.780;2023-04-15T10:48:52;99838.00;;;17.90
9985;BMP180;16737;50.932;6.780;2023-04-15T10:51:28;99823.00;;;17.80
9985;BMP180;16737;50.932;6.780;2023-04-15T10:53:56;99847.00;;;17.80
9985;BMP180;16737;50.932;6.780;2023-04-15T10:56:27;99825.00;;;17.80
9985;BMP180;16737;50.932;6.780;2023-04-15T10:58:54;99847.00;;;17.80
9985;BMP180;16737;50.932;6.780;2023-04-15T11:01:49;99852.00;;;17.70
9985;BMP180;16737;50.932;6.780;2023-04-15T11:05:02;99839.00;;;17.80
9985;BMP180;16737;50.932;6.780;2023-04-15T11:07:34;99843.00;;;17.80
9985;BMP180;16737;50.932;6.780;2023-04-15T11:10:02;99834.00;;;17.90
9985;BMP180;16737;50.932;6.780;2023-04-15T11:12:36;99849.00;;;17.90
9985;BMP180;16737;50.932;6.780;2023-04-15T11:15:27;99858.00;;;18.00
9985;BMP180;16737;50.932;6.780;2023-04-15T11:17:55;99855.00;;;18.10
9985;BMP180;16737;50.932;6.780;2023-04-15T11:20:24;99852.00;;;18.10
9985;BMP180;16737;50.932;6.780;2023-04-15T11:22:53;99855.00;;;18.10
9985;BMP180;16737;50.932;6.780;2023-04-15T11:25:23;99861.00;;;18.10
9985;BMP180;16737;50.932;6.780;2023-04-15T11:27:51;99868.00;;;18.10
9985;BMP180;16737;50.932;6.780;2023-04-15T11:30:21;99883.00;;;18.10
9985;BMP180;16737;50.932;6.780;2023-04-15T11:32:49;99878.00;;;18.20
9985;BMP180;16737;50.932;6.780;2023-04-15T11:35:17;99877.00;;;18.20
9985;BMP180;16737;50.932;6.780;2023-04-15T11:37:47;99878.00;;;18.20
9985;BMP180;16737;50.932;6.780;2023-04-15T11:40:15;99884.00;;;18.30
9985;BMP180;16737;50.932;6.780;2023-04-15T11:42:43;99883.00;;;18.30
9985;BMP180;16737;50.932;6.780;2023-04-15T11:45:14;99894.00;;;18.30
9985;BMP180;16737;50.932;6.780;2023-04-15T11:47:41;99903.00;;;18.40
9985;BMP180;16737;50.932;6.780;2023-04-15T11:50:16;99901.00;;;18.40
9985;BMP180;16737;50.932;6.780;2023-04-15T11:52:54;99900.00;;;18.30
9985;BMP180;16737;50.932;6.780;2023-04-15T11:55:22;99901.00;;;18.40
9985;BMP180;16737;50.932;6.780;2023-04-15T11:57:49;99901.00;;;18.40
9985;BMP180;16737;50.932;6.780;2023-04-15T12:00:19;99906.00;;;18.30
9985;BMP180;16737;50.932;6.780;2023-04-15T12:02:46;99909.00;;;18.30
9985;BMP180;16737;50.932;6.780;2023-04-15T12:05:13;99918.00;;;18.20
9985;BMP180;16737;50.932;6.780;2023-04-15T12:07:59;99925.00;;;18.20
9985;BMP180;16737;50.932;6.780;2023-04-15T12:10:30;99924.00;;;18.10
9985;BMP180;16737;50.932;6.780;2023-04-15T12:12:57;99923.00;;;18.10
9985;BMP180;16737;50.932;6.780;2023-04-15T12:15:24;99929.00;;;18.00
9985;BMP180;16737;50.932;6.780;2023-04-15T12:17:53;99924.00;;;18.00
9985;BMP180;16737;50.932;6.780;2023-04-15T12:20:24;99935.00;;;17.90
9985;BMP180;16737;50.932;6.780;2023-04-15T12:22:51;99930.00;;;17.90
9985;BMP180;16737;50.932;6.780;2023-04-15T12:25:33;99934.00;;;17.80
9985;BMP180;16737;50.932;6.780;2023-04-15T12:28:00;99942.00;;;17.90
9985;BMP180;16737;50.932;6.780;2023-04-15T12:30:27;99941.00;;;17.80
9985;BMP180;16737;50.932;6.780;2023-04-15T12:32:54;99949.00;;;17.80
9985;BMP180;16737;50.932;6.780;2023-04-15T12:35:21;99954.00;;;17.80
9985;BMP180;16737;50.932;6.780;2023-04-15T12:37:48;99962.00;;;17.80
9985;BMP180;16737;50.932;6.780;2023-04-15T12:40:18;99968.00;;;17.70
9985;BMP180;16737;50.932;6.780;2023-04-15T12:42:45;99970.00;;;17.70
9985;BMP180;16737;50.932;6.780;2023-04-15T12:45:13;99969.00;;;17.70
9985;BMP180;16737;50.932;6.780;2023-04-15T12:47:40;99977.00;;;17.60
9985;BMP180;16737;50.932;6.780;2023-04-15T12:50:07;99978.00;;;17.60
9985;BMP180;16737;50.932;6.780;2023-04-15T12:52:34;99983.00;;;17.50
9985;BMP180;16737;50.932;6.780;2023-04-15T12:55:01;99987.00;;;17.50
9985;BMP180;16737;50.932;6.780;2023-04-15T12:57:29;99951.00;;;17.40
9985;BMP180;16737;50.932;6.780;2023-04-15T12:59:56;100003.00;;;17.40
9985;BMP180;16737;50.932;6.780;2023-04-15T13:02:23;99996.00;;;17.40
9985;BMP180;16737;50.932;6.780;2023-04-15T13:04:53;99997.00;;;17.40
9985;BMP180;16737;50.932;6.780;2023-04-15T13:07:20;99998.00;;;17.30
9985;BMP180;16737;50.932;6.780;2023-04-15T13:09:47;100011.00;;;17.20
9985;BMP180;16737;50.932;6.780;2023-04-15T13:12:13;100003.00;;;17.20
9985;BMP180;16737;50.932;6.780;2023-04-15T13:14:42;100020.00;;;17.10
9985;BMP180;16737;50.932;6.780;2023-04-15T13:17:09;100014.00;;;16.90
9985;BMP180;16737;50.932;6.780;2023-04-15T13:19:37;100022.00;;;17.00
9985;BMP180;16737;50.932;6.780;2023-04-15T13:22:04;100025.00;;;17.00
9985;BMP180;16737;50.932;6.780;2023-04-15T13:24:32;100027.00;;;17.00
9985;BMP180;16737;50.932;6.780;2023-04-15T13:26:59;100032.00;;;16.90
9985;BMP180;16737;50.932;6.780;2023-04-15T13:29:28;100030.00;;;16.90
9985;BMP180;16737;50.932;6.780;2023-04-15T13:31:57;100034.00;;;16.90
9985;BMP180;16737;50.932;6.780;2023-04-15T13:34:25;100037.00;;;16.90
9985;BMP180;16737;50.932;6.780;2023-04-15T13:36:52;100047.00;;;16.90
9985;BMP180;16737;50.932;6.780;2023-04-15T13:39:19;100046.00;;;16.90
9985;BMP180;16737;50.932;6.780;2023-04-15T13:41:46;100055.00;;;16.90
9985;BMP180;16737;50.932;6.780;2023-04-15T13:44:13;100054.00;;;16.80
9985;BMP180;16737;50.932;6.780;2023-04-15T13:46:40;100065.00;;;16.80
9985;BMP180;16737;50.932;6.780;2023-04-15T13:49:09;100052.00;;;16.80
9985;BMP180;16737;50.932;6.780;2023-04-15T13:51:35;100069.00;;;16.80
9985;BMP180;16737;50.932;6.780;2023-04-15T13:54:03;100063.00;;;16.80
9985;BMP180;16737;50.932;6.780;2023-04-15T13:56:29;100068.00;;;16.70
9985;BMP180;16737;50.932;6.780;2023-04-15T13:58:56;100060.00;;;16.80
9985;BMP180;16737;50.932;6.780;2023-04-15T14:01:26;100059.00;;;16.70
9985;BMP180;16737;50.932;6.780;2023-04-15T14:03:53;100092.00;;;16.70
9985;BMP180;16737;50.932;6.780;2023-04-15T14:06:22;100078.00;;;16.70
9985;BMP180;16737;50.932;6.780;2023-04-15T14:08:49;100085.00;;;16.60
9985;BMP180;16737;50.932;6.780;2023-04-15T14:11:15;100079.00;;;16.60
9985;BMP180;16737;50.932;6.780;2023-04-15T14:13:42;100095.00;;;16.60
9985;BMP180;16737;50.932;6.780;2023-04-15T14:16:09;100091.00;;;16.60
9985;BMP180;16737;50.932;6.780;2023-04-15T14:18:36;100090.00;;;16.60
9985;BMP180;16737;50.932;6.780;2023-04-15T14:21:04;100099.00;;;16.50
9985;BMP180;16737;50.932;6.780;2023-04-15T14:23:33;100087.00;;;16.50
9985;BMP180;16737;50.932;6.780;2023-04-15T14:26:00;100098.00;;;16.50
9985;BMP180;16737;50.932;6.780;2023-04-15T14:28:27;100080.00;;;16.40